Time;durP1;ratioP1;P1;durP2;ratioP2;P2;SDS_P1;SDS_P2;PMS_P1;PMS_P2;Temp;Humidity;BMP_temperature;BMP_pressure;BME280_temperature;BME280_humidity;BME280_pressure;Samples;Min_cycle;Max_cycle;Signal;HPM_P1;HPM_P2
2022/08/29 00:01:35;;;;;;;1.98;1.00;;;25.20;41.50;;;;;;5028970;28;20038;-54
2022/08/29 00:04:01;;;;;;;1.45;0.80;;;25.20;41.50;;;;;;5031716;28;20022;-55
2022/08/29 00:06:27;;;;;;;1.42;0.70;;;25.20;41.50;;;;;;5025809;28;20029;-53
2022/08/29 00:08:53;;;;;;;1.45;0.70;;;25.10;41.50;;;;;;5030752;28;20431;-52
2022/08/29 00:11:19;;;;;;;1.80;0.85;;;25.10;41.50;;;;;;5024069;28;20033;-55
2022/08/29 00:13:45;;;;;;;1.35;0.80;;;25.10;41.40;;;;;;5026068;28;20061;-56
2022/08/29 00:16:11;;;;;;;2.00;0.80;;;25.10;41.50;;;;;;5029230;28;20037;-57
2022/08/29 00:18:38;;;;;;;1.65;0.73;;;25.10;41.50;;;;;;5030930;28;20037;-58
2022/08/29 00:21:04;;;;;;;1.15;0.73;;;25.10;41.50;;;;;;5025146;28;20106;-57
2022/08/29 00:23:29;;;;;;;1.20;0.70;;;25.10;41.50;;;;;;5028950;28;20452;-58
2022/08/29 00:25:56;;;;;;;1.48;0.93;;;25.10;41.50;;;;;;5028199;28;20037;-58
2022/08/29 00:28:21;;;;;;;1.83;0.80;;;25.10;41.50;;;;;;5026067;28;20047;-56
2022/08/29 00:30:48;;;;;;;0.82;0.60;;;25.10;41.50;;;;;;5027183;28;20133;-56
2022/08/29 00:33:15;;;;;;;1.50;0.77;;;25.10;41.50;;;;;;5026558;28;20036;-56
2022/08/29 00:35:43;;;;;;;1.15;0.70;;;25.10;41.50;;;;;;5029341;28;20524;-57
2022/08/29 00:38:11;;;;;;;0.85;0.60;;;25.10;41.50;;;;;;5026953;28;20330;-56
2022/08/29 00:40:40;;;;;;;1.45;0.70;;;25.00;41.40;;;;;;5026233;28;20033;-54
2022/08/29 00:43:06;;;;;;;1.13;0.60;;;25.00;41.40;;;;;;5021206;28;20354;-54
2022/08/29 00:45:34;;;;;;;1.60;0.77;;;25.00;41.40;;;;;;5030264;28;20025;-56
2022/08/29 00:48:06;;;;;;;3.50;1.10;;;25.00;41.40;;;;;;5028947;28;21724;-56
2022/08/29 00:50:46;;;;;;;1.60;0.90;;;25.00;41.40;;;;;;5027842;28;20036;-57
2022/08/29 00:53:15;;;;;;;1.55;0.75;;;25.00;41.40;;;;;;5030012;28;20029;-58
2022/08/29 00:55:45;;;;;;;1.83;0.90;;;25.00;41.40;;;;;;5027795;28;20021;-53
2022/08/29 00:58:17;;;;;;;1.52;0.80;;;25.00;41.40;;;;;;5023761;28;20033;-58
2022/08/29 01:00:44;;;;;;;1.02;0.60;;;25.00;41.40;;;;;;5028260;28;20429;-57
2022/08/29 01:03:10;;;;;;;1.75;0.73;;;25.00;41.40;;;;;;5027763;28;20475;-56
2022/08/29 01:05:36;;;;;;;1.00;0.60;;;25.00;41.40;;;;;;5028431;28;20179;-56
2022/08/29 01:08:03;;;;;;;1.83;0.93;;;25.00;41.40;;;;;;5026967;28;20049;-57
2022/08/29 01:13:13;;;;;;;;;;;24.90;41.40;;;;;;5028254;28;20021;-56
2022/08/29 01:15:42;;;;;;;1.13;0.70;;;24.90;41.40;;;;;;5028712;28;19924;-54
2022/08/29 01:18:10;;;;;;;1.90;0.85;;;24.90;41.40;;;;;;5029509;28;20044;-53
2022/08/29 01:21:05;;;;;;;1.45;0.80;;;24.90;42.00;;;;;;5026332;28;20052;-55
2022/08/29 01:23:45;;;;;;;1.48;0.88;;;24.90;41.40;;;;;;5028743;28;20063;-55
2022/08/29 01:26:12;;;;;;;1.20;0.70;;;24.90;41.40;;;;;;5043594;28;20025;-61
2022/08/29 01:28:41;;;;;;;1.70;0.70;;;24.90;41.40;;;;;;5026622;28;20025;-54
2022/08/29 01:31:19;;;;;;;2.08;0.65;;;24.90;41.50;;;;;;5029484;28;20033;-57
2022/08/29 01:33:49;;;;;;;1.60;0.70;;;24.90;41.50;;;;;;5026526;28;20111;-55
2022/08/29 01:36:19;;;;;;;1.42;0.90;;;24.80;41.50;;;;;;5027609;28;20049;-59
2022/08/29 01:38:46;;;;;;;1.80;0.88;;;24.80;41.50;;;;;;5025042;28;20029;-54
2022/08/29 01:41:12;;;;;;;1.60;1.00;;;24.80;41.50;;;;;;5029063;28;20334;-58
2022/08/29 01:43:41;;;;;;;1.55;0.80;;;24.80;41.50;;;;;;5028016;28;20033;-56
2022/08/29 01:46:08;;;;;;;1.60;1.00;;;24.80;41.50;;;;;;5026706;28;20055;-57
2022/08/29 01:48:37;;;;;;;1.00;0.80;;;24.80;41.50;;;;;;5024563;28;20022;-57
2022/08/29 01:51:03;;;;;;;2.65;1.00;;;24.80;41.50;;;;;;5027312;28;20103;-54
2022/08/29 01:53:28;;;;;;;2.47;1.10;;;24.80;41.40;;;;;;5020487;28;20033;-57
2022/08/29 01:55:54;;;;;;;1.38;0.93;;;24.80;41.50;;;;;;5028295;28;20033;-55
2022/08/29 01:58:20;;;;;;;1.60;0.80;;;24.80;41.50;;;;;;5027197;28;20105;-55
2022/08/29 02:00:46;;;;;;;1.67;0.80;;;24.80;41.40;;;;;;5028023;28;20038;-54
2022/08/29 02:03:12;;;;;;;1.27;0.73;;;24.80;41.40;;;;;;5027332;28;20017;-55
2022/08/29 02:05:38;;;;;;;1.52;0.80;;;24.80;41.50;;;;;;5026626;28;20118;-55
2022/08/29 02:08:04;;;;;;;1.77;0.90;;;24.80;41.40;;;;;;5028479;28;20052;-55
2022/08/29 02:10:30;;;;;;;1.73;0.85;;;24.80;41.40;;;;;;5027721;28;20037;-56
2022/08/29 02:12:57;;;;;;;2.40;1.02;;;24.80;41.40;;;;;;5028966;28;20036;-56
2022/08/29 02:15:23;;;;;;;2.05;0.93;;;24.80;41.40;;;;;;5026654;28;20376;-53
2022/08/29 02:17:49;;;;;;;1.70;1.00;;;24.70;41.30;;;;;;5028023;28;20029;-56
2022/08/29 02:20:15;;;;;;;2.00;1.08;;;24.70;41.30;;;;;;5030514;28;20044;-57
2022/08/29 02:22:42;;;;;;;1.00;0.80;;;24.70;41.30;;;;;;5032775;28;20029;-56
2022/08/29 02:27:54;;;;;;;1.92;1.00;;;24.70;41.30;;;;;;5025548;28;20034;-55
2022/08/29 02:30:20;;;;;;;2.47;1.00;;;24.70;41.30;;;;;;5037947;28;20025;-55
2022/08/29 02:32:47;;;;;;;1.67;1.08;;;24.70;41.30;;;;;;5035954;28;20075;-54
2022/08/29 02:35:14;;;;;;;2.55;1.13;;;24.70;41.30;;;;;;5035886;28;20057;-57
2022/08/29 02:37:40;;;;;;;1.88;1.00;;;24.70;41.30;;;;;;5037593;28;20033;-56
2022/08/29 02:40:06;;;;;;;1.45;0.90;;;24.70;41.30;;;;;;5022369;28;20065;-58
2022/08/29 02:42:32;;;;;;;2.22;1.10;;;24.70;41.30;;;;;;5019062;28;20084;-56
2022/08/29 02:44:58;;;;;;;2.55;1.20;;;24.70;41.20;;;;;;5019091;28;20430;-57
2022/08/29 02:47:24;;;;;;;2.45;1.15;;;24.70;41.20;;;;;;5034276;28;20029;-56
2022/08/29 02:49:50;;;;;;;2.25;1.23;;;24.70;41.10;;;;;;5036812;28;20026;-57
2022/08/29 02:52:16;;;;;;;3.25;1.38;;;24.70;41.10;;;;;;5019202;28;20422;-53
2022/08/29 02:54:42;;;;;;;2.92;1.50;;;24.70;41.10;;;;;;5018864;28;20500;-55
2022/08/29 02:57:08;;;;;;;2.10;1.27;;;24.60;41.00;;;;;;5018971;28;20069;-53
2022/08/29 02:59:34;;;;;;;2.00;1.30;;;24.60;41.00;;;;;;5018225;28;20088;-56
2022/08/29 03:02:00;;;;;;;2.72;1.30;;;24.60;40.90;;;;;;5025742;28;20057;-58
2022/08/29 03:04:26;;;;;;;1.65;1.20;;;24.60;40.90;;;;;;5036536;28;20053;-56
2022/08/29 03:06:52;;;;;;;2.00;1.48;;;24.60;40.90;;;;;;5038012;28;20451;-57
2022/08/29 03:09:18;;;;;;;3.13;1.65;;;24.60;40.90;;;;;;5038454;28;20053;-56
2022/08/29 03:11:44;;;;;;;2.95;1.67;;;24.60;40.80;;;;;;5038316;28;20034;-57
2022/08/29 03:14:09;;;;;;;2.25;1.45;;;24.60;40.80;;;;;;5032460;28;20036;-55
2022/08/29 03:16:35;;;;;;;2.53;1.42;;;24.60;40.70;;;;;;5035841;28;20033;-53
2022/08/29 03:19:01;;;;;;;2.00;1.30;;;24.60;40.70;;;;;;5026691;28;20079;-57
2022/08/29 03:21:27;;;;;;;3.72;1.80;;;24.60;40.70;;;;;;5017946;28;20128;-57
2022/08/29 03:23:57;;;;;;;2.60;1.60;;;24.60;41.30;;;;;;5031579;28;20112;-56
2022/08/29 03:26:23;;;;;;;2.42;1.80;;;24.60;40.60;;;;;;5037598;28;20033;-54
2022/08/29 03:28:50;;;;;;;3.10;1.63;;;24.60;40.60;;;;;;5035725;28;20056;-56
2022/08/29 03:31:15;;;;;;;2.65;1.70;;;24.60;40.60;;;;;;5029537;28;20111;-57
2022/08/29 03:33:42;;;;;;;2.72;1.70;;;24.60;40.50;;;;;;5024877;28;20088;-54
2022/08/29 03:36:09;;;;;;;2.58;1.60;;;24.60;40.50;;;;;;5037959;28;20026;-57
2022/08/29 03:38:36;;;;;;;3.85;1.77;;;24.50;40.40;;;;;;5037382;28;20029;-56
2022/08/29 03:41:03;;;;;;;2.67;1.88;;;24.50;40.40;;;;;;5036510;28;20099;-58
2022/08/29 03:43:29;;;;;;;2.20;1.60;;;24.50;40.40;;;;;;5037602;28;20029;-54
2022/08/29 03:45:55;;;;;;;3.22;2.00;;;24.50;40.30;;;;;;5023774;28;20030;-56
2022/08/29 03:48:21;;;;;;;3.28;2.35;;;24.50;40.30;;;;;;5037502;28;20043;-54
2022/08/29 03:50:46;;;;;;;2.85;1.70;;;24.50;40.20;;;;;;5037409;28;20034;-51
2022/08/29 03:53:12;;;;;;;3.38;1.83;;;24.50;40.20;;;;;;5030758;28;20029;-53
2022/08/29 03:55:38;;;;;;;3.75;2.20;;;24.50;40.20;;;;;;5017830;28;20034;-57
2022/08/29 03:58:04;;;;;;;3.53;1.92;;;24.50;40.20;;;;;;5017051;28;20128;-55
2022/08/29 04:00:31;;;;;;;3.15;2.17;;;24.50;40.80;;;;;;5019863;28;20033;-56
2022/08/29 04:02:57;;;;;;;2.30;1.83;;;24.50;40.20;;;;;;5034097;28;20063;-56
2022/08/29 04:05:24;;;;;;;3.15;2.22;;;24.40;40.10;;;;;;5028402;28;20017;-56
2022/08/29 04:07:52;;;;;;;3.65;2.20;;;24.50;40.20;;;;;;5034186;28;20136;-55
2022/08/29 04:10:30;;;;;;;3.13;2.03;;;24.40;40.00;;;;;;5036865;28;20358;-54
2022/08/29 04:12:57;;;;;;;3.10;2.05;;;24.50;40.10;;;;;;5036859;28;20040;-57
2022/08/29 04:15:25;;;;;;;4.72;2.38;;;24.40;40.00;;;;;;5030747;28;20175;-55
2022/08/29 04:17:56;;;;;;;3.20;2.33;;;24.40;40.00;;;;;;5029155;28;20047;-58
2022/08/29 04:20:24;;;;;;;4.15;2.35;;;24.40;40.00;;;;;;5022646;28;20151;-56
2022/08/29 04:22:50;;;;;;;3.85;2.10;;;24.40;40.00;;;;;;5017673;28;20155;-57
2022/08/29 04:25:16;;;;;;;3.15;2.05;;;24.40;40.00;;;;;;5022763;28;20352;-54
2022/08/29 04:27:43;;;;;;;3.20;2.00;;;24.40;40.00;;;;;;5036374;28;20044;-52
2022/08/29 04:30:13;;;;;;;4.07;2.05;;;24.40;40.00;;;;;;5026190;28;20112;-57
2022/08/29 04:32:39;;;;;;;3.05;2.15;;;24.40;40.00;;;;;;5022082;28;20084;-55
2022/08/29 04:35:06;;;;;;;3.95;2.47;;;24.40;40.00;;;;;;5035479;28;20061;-54
2022/08/29 04:37:32;;;;;;;3.55;1.98;;;24.40;40.00;;;;;;5035810;28;20053;-55
2022/08/29 04:39:58;;;;;;;3.55;2.05;;;24.40;40.00;;;;;;5036251;28;20417;-55
2022/08/29 04:42:24;;;;;;;4.57;2.75;;;24.40;40.60;;;;;;5035375;28;20352;-54
2022/08/29 04:44:50;;;;;;;3.65;2.22;;;24.40;40.00;;;;;;5034658;28;20059;-54
2022/08/29 04:47:16;;;;;;;3.28;2.20;;;24.40;40.00;;;;;;5029728;28;20029;-54
2022/08/29 04:49:42;;;;;;;2.95;2.08;;;24.40;40.00;;;;;;5016718;28;20080;-55
2022/08/29 04:52:10;;;;;;;3.30;2.45;;;24.40;40.00;;;;;;5015950;28;20519;-57
2022/08/29 04:54:35;;;;;;;4.47;2.13;;;24.40;40.00;;;;;;5031185;28;20060;-57
2022/08/29 04:57:02;;;;;;;2.50;1.92;;;24.30;40.60;;;;;;5023904;28;20030;-56
2022/08/29 04:59:28;;;;;;;3.25;2.47;;;24.30;39.90;;;;;;5017948;28;20045;-55
2022/08/29 05:01:55;;;;;;;3.22;2.28;;;24.40;40.00;;;;;;5027175;28;20050;-56
2022/08/29 05:04:21;;;;;;;3.42;2.28;;;24.30;39.90;;;;;;5021653;28;20034;-58
2022/08/29 05:06:47;;;;;;;2.83;2.10;;;24.30;39.90;;;;;;5032215;28;20041;-53
2022/08/29 05:09:12;;;;;;;3.90;2.38;;;24.30;39.90;;;;;;5015952;28;20042;-57
2022/08/29 05:11:39;;;;;;;4.07;2.50;;;24.30;39.90;;;;;;5016287;28;20346;-56
2022/08/29 05:14:05;;;;;;;5.88;2.80;;;24.30;39.90;;;;;;5027754;28;20034;-55
2022/08/29 05:16:35;;;;;;;2.90;2.20;;;24.30;39.90;;;;;;5023171;28;20441;-58
2022/08/29 05:19:04;;;;;;;3.50;2.47;;;24.30;39.80;;;;;;5020099;28;20037;-54
2022/08/29 05:21:35;;;;;;;3.53;2.38;;;24.30;39.80;;;;;;5020458;28;20042;-55
2022/08/29 05:24:05;;;;;;;2.83;2.00;;;24.30;39.80;;;;;;5015723;28;20156;-57
2022/08/29 05:26:35;;;;;;;4.90;2.80;;;24.30;40.40;;;;;;5015391;28;20499;-57
2022/08/29 05:29:02;;;;;;;3.15;2.25;;;24.30;39.80;;;;;;5015728;28;20037;-57
2022/08/29 05:31:28;;;;;;;4.25;2.38;;;24.30;39.80;;;;;;5035143;28;20041;-54
2022/08/29 05:33:54;;;;;;;3.95;2.45;;;24.30;39.80;;;;;;5033725;28;20033;-55
2022/08/29 05:36:20;;;;;;;2.67;2.15;;;24.30;39.80;;;;;;5031728;28;20033;-55
2022/08/29 05:38:46;;;;;;;4.43;2.22;;;24.30;40.40;;;;;;5025406;28;20025;-57
2022/08/29 05:41:12;;;;;;;3.88;2.03;;;24.30;39.80;;;;;;5034916;28;20542;-57
2022/08/29 05:43:37;;;;;;;2.72;2.00;;;24.30;39.80;;;;;;5028306;28;20034;-52
2022/08/29 05:46:06;;;;;;;3.13;2.20;;;24.30;39.80;;;;;;5017137;28;20053;-58
2022/08/29 05:48:33;;;;;;;3.47;2.20;;;24.30;39.80;;;;;;5034839;28;20029;-55
2022/08/29 05:50:59;;;;;;;3.42;2.28;;;24.30;39.90;;;;;;5015807;28;20076;-57
2022/08/29 05:53:26;;;;;;;2.78;1.95;;;24.30;39.90;;;;;;5014777;28;20100;-57
2022/08/29 05:55:52;;;;;;;3.72;2.30;;;24.30;39.90;;;;;;5014984;28;20441;-55
2022/08/29 05:58:18;;;;;;;3.17;2.30;;;24.30;39.90;;;;;;5015173;28;20049;-57
2022/08/29 06:00:46;;;;;;;3.80;2.10;;;24.30;39.90;;;;;;5015872;28;20075;-56
2022/08/29 06:03:13;;;;;;;4.07;2.38;;;24.30;40.50;;;;;;5034052;28;20063;-57
2022/08/29 06:05:40;;;;;;;3.15;2.08;;;24.30;39.90;;;;;;5032694;28;20179;-58
2022/08/29 06:08:07;;;;;;;4.35;2.15;;;24.30;39.90;;;;;;5024432;28;20095;-57
2022/08/29 06:10:37;;;;;;;3.55;2.20;;;24.30;39.90;;;;;;5031392;28;20372;-58
2022/08/29 06:13:03;;;;;;;4.03;2.03;;;24.30;40.00;;;;;;5033640;28;20113;-56
2022/08/29 06:15:29;;;;;;;4.80;2.10;;;24.30;40.00;;;;;;5031376;28;20109;-58
2022/08/29 06:17:55;;;;;;;3.70;2.00;;;24.30;40.00;;;;;;5034052;28;20035;-56
2022/08/29 06:20:21;;;;;;;3.40;2.00;;;24.30;40.00;;;;;;5030617;28;20447;-55
2022/08/29 06:22:47;;;;;;;3.15;1.85;;;24.30;40.00;;;;;;5024943;28;20029;-55
2022/08/29 06:25:12;;;;;;;3.45;2.20;;;24.30;40.00;;;;;;5024076;28;20044;-55
2022/08/29 06:27:38;;;;;;;3.70;2.40;;;24.30;40.10;;;;;;5023027;28;20361;-57
2022/08/29 06:30:05;;;;;;;2.47;1.67;;;24.30;40.10;;;;;;5023352;28;20022;-54
2022/08/29 06:32:31;;;;;;;3.35;1.98;;;24.30;40.10;;;;;;5023580;28;20033;-54
2022/08/29 06:34:57;;;;;;;2.65;2.00;;;24.30;40.10;;;;;;5015871;28;20451;-58
2022/08/29 06:37:23;;;;;;;3.17;2.08;;;24.30;40.10;;;;;;5015820;28;20032;-57
2022/08/29 06:39:49;;;;;;;3.85;2.05;;;24.30;40.10;;;;;;5015044;28;20057;-54
2022/08/29 06:42:17;;;;;;;3.28;1.85;;;24.30;40.10;;;;;;5015328;28;20070;-56
2022/08/29 06:44:44;;;;;;;4.22;2.28;;;24.30;40.70;;;;;;5015102;28;20109;-52
2022/08/29 06:47:09;;;;;;;4.13;1.95;;;24.30;40.10;;;;;;5016443;28;20114;-54
2022/08/29 06:49:35;;;;;;;3.70;1.98;;;24.40;40.10;;;;;;5015991;28;20111;-56
2022/08/29 06:52:01;;;;;;;2.90;2.20;;;24.40;40.20;;;;;;5016594;28;20088;-59
2022/08/29 06:54:28;;;;;;;3.65;1.83;;;24.40;40.20;;;;;;5014137;28;20433;-52
2022/08/29 06:56:54;;;;;;;3.33;1.70;;;24.40;40.20;;;;;;5024501;28;20079;-58
2022/08/29 06:59:20;;;;;;;3.05;2.00;;;24.40;40.20;;;;;;5029750;28;20034;-53
2022/08/29 07:01:46;;;;;;;3.58;2.25;;;24.40;40.30;;;;;;5016211;28;20104;-57
2022/08/29 07:04:13;;;;;;;2.65;1.80;;;24.40;40.30;;;;;;5013963;28;20038;-57
2022/08/29 07:06:39;;;;;;;6.47;2.47;;;24.40;40.30;;;;;;5023796;28;20432;-55
2022/08/29 07:09:06;;;;;;;4.30;1.77;;;24.40;40.30;;;;;;5037714;28;20449;-56
2022/08/29 07:11:32;;;;;;;3.53;1.90;;;24.40;40.40;;;;;;5037786;28;20026;-53
2022/08/29 07:14:01;;;;;;;6.18;1.73;;;24.40;40.40;;;;;;5029506;28;20030;-57
2022/08/29 07:16:28;;;;;;;3.85;1.95;;;24.40;40.40;;;;;;5028044;28;20036;-56
2022/08/29 07:18:54;;;;;;;1.98;1.60;;;24.40;40.40;;;;;;5032292;28;20040;-56
2022/08/29 07:21:22;;;;;;;3.28;1.90;;;24.50;40.40;;;;;;5011753;28;20584;-55
2022/08/29 07:23:50;;;;;;;5.65;1.80;;;24.40;40.40;;;;;;5029371;28;20463;-50
2022/08/29 07:26:17;;;;;;;2.10;1.50;;;24.40;40.40;;;;;;5031965;28;20037;-54
2022/08/29 07:28:49;;;;;;;2.35;1.50;;;24.50;40.40;;;;;;5026999;28;20057;-56
2022/08/29 07:31:15;;;;;;;3.83;1.90;;;24.50;40.40;;;;;;5024880;28;20364;-53
2022/08/29 07:33:41;;;;;;;1.92;1.48;;;24.50;40.40;;;;;;5025808;28;20119;-58
2022/08/29 07:36:07;;;;;;;2.83;1.70;;;24.50;40.40;;;;;;5021556;28;20025;-57
2022/08/29 07:38:34;;;;;;;3.10;1.60;;;24.50;40.40;;;;;;5017785;28;20034;-54
2022/08/29 07:41:03;;;;;;;3.72;1.95;;;24.50;40.40;;;;;;5017770;28;20491;-56
2022/08/29 07:43:29;;;;;;;4.82;1.60;;;24.50;40.40;;;;;;5027865;28;20066;-55
2022/08/29 07:45:55;;;;;;;2.47;1.70;;;24.60;40.50;;;;;;5025330;28;20033;-58
2022/08/29 07:48:22;;;;;;;2.97;1.77;;;24.50;40.50;;;;;;5026966;28;20029;-56
2022/08/29 07:50:48;;;;;;;2.75;1.60;;;24.60;40.60;;;;;;5027117;28;20037;-55
2022/08/29 07:53:15;;;;;;;2.47;1.60;;;24.60;40.60;;;;;;5029392;28;20376;-58
2022/08/29 07:55:40;;;;;;;3.88;2.15;;;24.60;40.70;;;;;;5024790;28;20030;-57
2022/08/29 07:58:06;;;;;;;2.50;1.65;;;24.60;40.70;;;;;;5024685;28;20092;-54
2022/08/29 08:00:32;;;;;;;3.35;1.63;;;24.60;40.70;;;;;;5029551;28;20045;-55
2022/08/29 08:02:59;;;;;;;5.30;1.67;;;24.60;40.70;;;;;;5019754;28;20037;-55
2022/08/29 08:05:25;;;;;;;2.58;1.60;;;24.60;40.70;;;;;;5023564;28;20032;-53
2022/08/29 08:07:51;;;;;;;3.08;1.60;;;24.60;40.80;;;;;;5023470;28;20056;-56
2022/08/29 08:10:19;;;;;;;3.00;1.83;;;24.60;40.80;;;;;;5037102;28;20033;-56
2022/08/29 08:12:47;;;;;;;1.83;1.40;;;24.70;40.90;;;;;;5035864;28;20026;-57
2022/08/29 08:15:14;;;;;;;2.08;1.30;;;24.60;40.90;;;;;;5035088;28;20412;-59
2022/08/29 08:17:41;;;;;;;3.78;1.52;;;24.60;40.90;;;;;;5025799;28;20064;-57
2022/08/29 08:20:07;;;;;;;3.70;1.80;;;24.60;41.00;;;;;;5023823;28;20038;-57
2022/08/29 08:22:34;;;;;;;1.92;1.42;;;24.70;41.10;;;;;;5020107;28;20117;-55
2022/08/29 08:25:00;;;;;;;3.33;1.58;;;24.70;41.10;;;;;;5033459;28;20060;-55
2022/08/29 08:27:26;;;;;;;2.05;1.40;;;24.70;41.10;;;;;;5036624;28;20091;-56
2022/08/29 08:29:52;;;;;;;2.58;1.40;;;24.70;41.10;;;;;;5031966;28;20079;-55
2022/08/29 08:32:18;;;;;;;2.53;1.60;;;24.70;41.10;;;;;;5016642;28;20038;-57
2022/08/29 08:34:44;;;;;;;3.22;1.75;;;24.70;41.10;;;;;;5016711;28;20103;-56
2022/08/29 08:37:10;;;;;;;2.05;1.38;;;24.70;41.10;;;;;;5027942;28;20162;-57
2022/08/29 08:39:37;;;;;;;2.55;1.40;;;24.70;41.10;;;;;;5033873;28;20345;-56
2022/08/29 08:42:16;;;;;;;2.05;1.38;;;24.70;41.10;;;;;;5035904;28;20542;-58
2022/08/29 08:44:47;;;;;;;2.47;1.42;;;24.80;41.10;;;;;;5036029;28;20453;-57
2022/08/29 08:47:18;;;;;;;2.95;1.50;;;24.80;41.00;;;;;;5030253;28;20076;-52
2022/08/29 08:50:11;;;;;;;3.25;1.63;;;24.80;41.00;;;;;;5016283;28;20220;-56
2022/08/29 08:52:46;;;;;;;2.45;1.60;;;24.80;40.90;;;;;;5016729;28;20041;-55
2022/08/29 08:55:44;;;;;;;2.13;1.50;;;24.80;40.80;;;;;;5022596;28;20025;-55
2022/08/29 08:58:23;;;;;;;1.98;1.33;;;24.80;40.70;;;;;;5035965;28;20037;-59
2022/08/29 09:01:16;;;;;;;2.83;1.38;;;24.90;40.80;;;;;;5033757;28;20037;-55
2022/08/29 09:04:20;;;;;;;1.98;1.30;;;24.80;40.70;;;;;;5035643;28;20048;-57
2022/08/29 09:06:57;;;;;;;2.00;1.25;;;24.80;40.60;;;;;;4955603;29;20066;-54
2022/08/29 09:09:54;;;;;;;1.48;1.33;;;24.80;40.60;;;;;;4955599;29;20071;-57
2022/08/29 09:12:37;;;;;;;1.58;1.17;;;24.80;40.60;;;;;;5006661;28;20038;-57
2022/08/29 09:15:08;;;;;;;1.83;1.20;;;24.90;40.60;;;;;;5035944;28;20029;-56
2022/08/29 09:17:49;;;;;;;1.90;1.20;;;24.80;40.50;;;;;;5035530;28;20099;-56
2022/08/29 09:20:27;;;;;;;1.52;0.95;;;24.90;40.60;;;;;;5030795;28;20041;-57
2022/08/29 09:23:24;;;;;;;1.85;1.27;;;24.90;40.50;;;;;;5036014;28;20033;-57
2022/08/29 09:25:50;;;;;;;3.30;1.48;;;24.90;40.60;;;;;;5034763;28;20152;-54
2022/08/29 09:28:16;;;;;;;2.10;1.42;;;24.90;40.60;;;;;;5019941;28;20412;-57
2022/08/29 09:31:04;;;;;;;2.03;1.38;;;24.90;40.50;;;;;;5025398;28;20033;-56
2022/08/29 09:33:43;;;;;;;2.08;1.30;;;24.90;40.60;;;;;;5035311;28;20033;-55
2022/08/29 09:36:13;;;;;;;1.83;1.20;;;25.00;40.60;;;;;;5034457;28;20440;-56
2022/08/29 09:38:39;;;;;;;1.83;1.30;;;25.00;40.60;;;;;;5017247;28;20416;-56
2022/08/29 09:41:07;;;;;;;3.47;1.38;;;25.00;40.60;;;;;;5028674;28;20041;-57
2022/08/29 09:43:47;;;;;;;2.50;1.30;;;25.00;40.60;;;;;;5035263;28;20029;-57
2022/08/29 09:46:15;;;;;;;2.75;1.25;;;25.00;40.60;;;;;;5019352;28;20103;-55
2022/08/29 09:49:11;;;;;;;1.75;1.13;;;25.00;40.60;;;;;;5016033;28;20037;-53
2022/08/29 09:51:39;;;;;;;3.58;1.45;;;25.00;40.60;;;;;;5015618;28;20429;-58
2022/08/29 09:54:24;;;;;;;1.77;1.30;;;25.00;40.60;;;;;;5015181;28;20030;-56
2022/08/29 09:57:17;;;;;;;2.38;1.35;;;25.00;40.60;;;;;;5022980;28;20045;-57
2022/08/29 10:00:12;;;;;;;1.88;1.20;;;25.10;40.70;;;;;;5015182;28;20030;-57
2022/08/29 10:02:56;;;;;;;1.85;1.13;;;25.00;40.60;;;;;;5012445;28;20128;-57
2022/08/29 10:05:45;;;;;;;2.30;1.30;;;25.10;40.70;;;;;;5015669;28;20044;-55
2022/08/29 10:08:34;;;;;;;1.77;1.20;;;25.10;40.60;;;;;;5015335;28;20054;-55
2022/08/29 10:11:03;;;;;;;1.35;1.10;;;25.10;40.60;;;;;;5017514;28;20179;-56
2022/08/29 10:13:34;;;;;;;2.05;1.10;;;25.10;40.60;;;;;;5014972;28;20065;-53
2022/08/29 10:16:06;;;;;;;2.78;1.40;;;25.10;40.70;;;;;;5014635;28;20364;-53
2022/08/29 10:18:41;;;;;;;1.85;1.23;;;25.10;40.70;;;;;;5026034;28;20429;-56
2022/08/29 10:21:14;;;;;;;2.63;1.30;;;25.10;40.70;;;;;;5027780;28;20037;-55
2022/08/29 10:23:57;;;;;;;2.55;1.20;;;25.10;40.90;;;;;;5032998;28;20048;-54
2022/08/29 10:26:32;;;;;;;3.60;1.40;;;25.10;40.90;;;;;;5031713;28;20059;-55
2022/08/29 10:29:06;;;;;;;3.35;1.10;;;25.10;41.00;;;;;;5015726;28;20591;-61
2022/08/29 10:31:48;;;;;;;2.53;0.90;;;25.20;41.20;;;;;;5020461;28;20033;-64
2022/08/29 10:34:33;;;;;;;2.45;1.27;;;25.20;41.20;;;;;;5017184;28;20109;-63
2022/08/29 10:37:14;;;;;;;1.48;1.00;;;25.20;41.50;;;;;;5026441;28;20240;-62
2022/08/29 10:40:08;;;;;;;1.75;1.13;;;25.30;41.60;;;;;;5018411;28;20021;-62
2022/08/29 10:42:37;;;;;;;1.70;1.00;;;25.30;41.60;;;;;;5022329;28;20045;-62
2022/08/29 10:45:20;;;;;;;1.80;1.05;;;25.40;41.70;;;;;;5017593;28;20061;-63
2022/08/29 10:48:13;;;;;;;2.00;1.10;;;25.50;41.60;;;;;;5020595;28;20037;-63
2022/08/29 10:50:56;;;;;;;1.00;0.80;;;25.60;41.50;;;;;;5020962;28;20449;-64
2022/08/29 10:53:32;;;;;;;1.83;0.90;;;25.80;41.50;;;;;;5037175;28;20284;-64
2022/08/29 10:56:00;;;;;;;2.47;1.35;;;25.80;41.30;;;;;;5022981;28;20077;-56
2022/08/29 10:58:38;;;;;;;1.80;1.00;;;26.00;41.20;;;;;;5018467;28;20389;-61
2022/08/29 11:01:40;;;;;;;2.55;1.27;;;26.10;41.10;;;;;;5032447;28;20055;-62
2022/08/29 11:04:19;;;;;;;2.47;1.13;;;26.20;40.90;;;;;;5020711;28;20134;-64
2022/08/29 11:07:03;;;;;;;1.77;1.00;;;26.30;40.80;;;;;;5038024;28;20323;-64
2022/08/29 11:10:01;;;;;;;1.45;1.20;;;26.40;40.60;;;;;;4995269;28;20454;-60
2022/08/29 11:12:44;;;;;;;2.55;0.77;;;26.50;40.60;;;;;;4991486;28;20473;-62
2022/08/29 11:15:25;;;;;;;1.40;0.77;;;26.60;40.40;;;;;;4998411;28;20076;-59
2022/08/29 11:18:19;;;;;;;2.08;0.70;;;26.60;40.30;;;;;;4998250;28;20049;-64
2022/08/29 11:21:18;;;;;;;1.67;0.82;;;26.80;40.30;;;;;;4987528;28;20046;-63
2022/08/29 11:23:47;;;;;;;2.35;1.20;;;26.80;40.10;;;;;;4989762;28;20319;-64
2022/08/29 11:26:30;;;;;;;1.90;1.00;;;26.90;40.10;;;;;;4997300;28;20073;-65
2022/08/29 11:29:13;;;;;;;2.15;1.05;;;27.00;40.10;;;;;;4997561;28;20477;-66
2022/08/29 11:32:19;;;;;;;3.05;1.10;;;27.00;40.10;;;;;;4993600;28;20339;-67
2022/08/29 11:35:19;;;;;;;1.17;0.88;;;27.10;40.20;;;;;;4973403;28;20113;-64
2022/08/29 11:38:14;;;;;;;3.53;1.02;;;27.10;40.20;;;;;;4984273;28;20101;-62
2022/08/29 11:41:04;;;;;;;1.60;0.90;;;27.20;41.00;;;;;;4987319;28;20084;-62
2022/08/29 11:43:37;;;;;;;2.00;1.17;;;27.30;40.40;;;;;;4984361;28;20040;-63
2022/08/29 11:46:05;;;;;;;1.42;0.77;;;27.30;40.30;;;;;;4984722;28;20458;-59
2022/08/29 11:48:45;;;;;;;1.77;1.00;;;27.40;40.40;;;;;;4987381;28;20054;-67
2022/08/29 11:51:36;;;;;;;4.68;0.95;;;27.40;40.30;;;;;;4986728;28;20030;-64
2022/08/29 11:54:23;;;;;;;2.22;1.00;;;27.40;40.20;;;;;;4987123;28;20042;-61
2022/08/29 11:57:02;;;;;;;2.40;1.45;;;27.50;40.20;;;;;;4984860;28;20034;-62
2022/08/29 11:59:49;;;;;;;1.40;0.82;;;27.50;40.10;;;;;;4986544;28;20041;-60
2022/08/29 12:02:27;;;;;;;2.08;1.20;;;27.60;40.10;;;;;;4986832;28;20118;-61
2022/08/29 12:05:07;;;;;;;1.08;0.80;;;27.60;40.00;;;;;;4985370;28;20041;-61
2022/08/29 12:07:53;;;;;;;2.08;1.00;;;27.60;39.90;;;;;;4994116;28;20045;-61
2022/08/29 12:10:18;;;;;;;1.60;1.17;;;27.70;39.80;;;;;;5023461;28;20349;-62
2022/08/29 12:12:46;;;;;;;1.25;0.80;;;27.70;39.70;;;;;;5025582;28;20029;-59
2022/08/29 12:15:31;;;;;;;2.05;1.05;;;27.70;39.70;;;;;;5025670;28;20030;-61
2022/08/29 12:17:58;;;;;;;1.77;0.90;;;27.70;39.60;;;;;;5021692;28;20026;-59
2022/08/29 12:20:29;;;;;;;1.70;1.00;;;27.70;39.50;;;;;;5021554;28;20033;-61
2022/08/29 12:23:16;;;;;;;1.50;1.17;;;27.80;39.50;;;;;;5025827;28;20112;-62
2022/08/29 12:26:01;;;;;;;1.67;0.90;;;27.80;39.30;;;;;;5017064;28;20068;-58
2022/08/29 12:28:30;;;;;;;1.73;0.85;;;27.80;39.20;;;;;;5016765;28;20026;-60
2022/08/29 12:31:04;;;;;;;1.13;0.77;;;27.90;39.20;;;;;;5027444;28;20040;-61
2022/08/29 12:33:49;;;;;;;2.05;0.90;;;27.90;39.80;;;;;;5020137;28;20112;-60
2022/08/29 12:36:31;;;;;;;1.48;0.70;;;27.90;39.10;;;;;;5025643;28;20437;-63
2022/08/29 12:39:15;;;;;;;1.42;0.77;;;28.00;39.00;;;;;;5023188;28;20037;-58
2022/08/29 12:41:48;;;;;;;;;;;28.00;38.80;;;;;;5025584;28;20102;-59
2022/08/29 12:44:18;;;;;;;2.40;1.23;;;28.00;38.70;;;;;;5024452;28;19920;-60
2022/08/29 12:46:50;;;;;;;1.75;1.20;;;28.00;38.30;;;;;;5021725;28;20365;-58
2022/08/29 12:49:23;;;;;;;3.28;2.35;;;28.00;38.00;;;;;;5024067;28;20045;-55
2022/08/29 12:51:58;;;;;;;4.72;3.60;;;28.10;37.80;;;;;;5024976;28;20164;-57
2022/08/29 12:54:34;;;;;;;5.55;3.75;;;28.10;37.70;;;;;;5027880;28;20104;-56
2022/08/29 12:57:01;;;;;;;5.65;3.33;;;28.10;37.50;;;;;;5023914;28;20368;-51
2022/08/29 12:59:28;;;;;;;4.47;2.88;;;28.10;37.40;;;;;;5023712;28;20102;-59
2022/08/29 13:01:56;;;;;;;4.07;2.40;;;28.10;37.20;;;;;;5023066;28;20128;-57
2022/08/29 13:04:32;;;;;;;3.15;2.33;;;28.10;37.00;;;;;;5022396;28;20029;-56
2022/08/29 13:07:00;;;;;;;2.83;2.00;;;28.10;36.80;;;;;;5023231;28;20164;-54
2022/08/29 13:09:28;;;;;;;2.63;1.80;;;28.10;36.70;;;;;;5023906;28;20053;-53
2022/08/29 13:12:19;;;;;;;1.95;1.55;;;28.10;37.20;;;;;;5022596;28;20035;-58
2022/08/29 13:14:47;;;;;;;2.55;1.85;;;28.10;36.50;;;;;;5020252;28;20649;-56